Pagrindinis puslapis
METAR-TAF:

METAR-TAF

Oro uostai :

Kingstonas, Jamaika

platuma: 17-56N, ilguma: 076-47W, Aukštis: 3 m

Dabartinis oras

Ataskaita buvo paskelbta 50 minutes, ne 05:00 UTC
Vėjas 8 kt iš Šiaurės/Šiaurės Vakarų
Temperatūra 25°C
Drėgmė 83%
Slėgis 1015 hPa
Matomumas 10 km arba daugiau
Mažai debesys ne aukštis 2200 ft

METAR: MKJP 230500Z 34008KT 9999 FEW022 25/22 Q1015

Laikas: 00:50 (05:50 UTC)

Prognozė

Ataskaita buvo paskelbta 35 minutes, ne 05:15 UTC
Prognozė galioja nuo 23 metu 06 UTC su 24 metu 06 UTC
Vėjas 5 kt iš Šiaurės
Matomumas 10 km arba daugiau
Išsisklaidę debesys ne aukštis 2200 ft
Su prošvaistėmis ne aukštis 3200 ft
Tapsmas
nuo 23 metu 15 UTC su 23 metu 17 UTC
Vėjas 10 kt iš Pietų/Pietryčių
Tapsmas
nuo 24 metu 01 UTC su 24 metu 03 UTC
Vėjas 5 kt iš Šiaurės

TAF: MKJP 230515Z 2306/2406 35005KT 9999 SCT022 BKN032 BECMG 2315/2317 16010KT BECMG 2401/2403 35005KT

Orai ataskaitas ir orų prognozės (METAR, TAF).

turimą stotys yra geltonos ir raudonos taškus žemėlapyje.

Perkelti pele per norėdami pamatyti stoties vardą.

Tada spustelėkite, norėdami matyti oro stebėjimo ir prognozės.

Norėdami pakeisti žemėlapį: spustelėkite ant žalios mygtukų su juodo kryžiaus žemyn,; žalią mygtuką su brūkšneliu, jei norite nutolinti; arba žalių rodyklių gretimoms žemėlapius.


METAR-TAF: